Airfield :
LOGIN :

Register | Disclaimer

   EN    FR    IT 

 










Legend :    VFR   Marginal VFR   IFR   Intensive IFR   Very Intensive IFR
Visi :
Ceiling :
>= 8 km
>= 3000ft
5 to 8 km
1000 to 3000 ft
1500m to 5 km
500 to 1000 ft
800 to 1500m
200 to 500 ft
< 800m
< 200 ft
Symbols :   Thunderstorms  Fog  Heavy snow  Heavy precipitations  Wind > 20 kt
SIGMETs :     Misc.  Thunderstorms  Icing  Turbulence  Mountain Waves  Volcanic Ashes







- Airport Elevation : 502 ft
- IATA code : ORK


EICK - Cork

CURRENT METAR :
  • 270830Z 22011KT 9999 FEW006 SCT009 BKN017 14/13 Q1003 NOSIG

EXPIRED METARs :
  • 270800Z 22010KT 190V250 9999 FEW004 SCT007 BKN022 14/13 Q1004 NOSIG
  • 270730Z 22009KT 200V260 9999 -DZ FEW003 BKN005 BKN018 13/13 Q1004 TEMPO SCT005
  • 270700Z 22008KT 200V260 9999 FEW005 SCT008 BKN018 13/13 Q1004 NOSIG
  • 270630Z 23010KT 8000 -DZ FEW004 BKN006 BKN016 13/13 Q1004 BECMG BKN008
  • 270600Z 22009KT 9999 BKN006 BKN014 13/13 Q1004 BECMG BKN008

TAF TAF EICK
Valid from the 27 at 06:00 until the 28 at 06:00 UTC


270500Z 2706/2806 21010KT 9999 BKN004 BKN008
BECMG 2706/2708 BKN008
BECMG 2708/2711 SCT012 BKN020
BECMG 2715/2718 29008KT
No reported NOTAMs for that airfield.



MET'MAP, your aeronautical weather chart ! - Copyright ORBIFLY December 2007 - Disclaimer

ORBIFLY MET'MAP TEAM :

Programming & Development : Alexandra Zaïnal
Concept & Development : Baudouin d'Aumeries
Co-Development & Prog : Marc-Olivier Méhu
Technical & hardware support : Manuel Goepfert

Contact : metmap@orbifly.com




SOURCES & CREDITS :

   NOAA